sensor_id;sensor_type;location;lat;lon;timestamp;P1;durP1;ratioP1;P2;durP2;ratioP2
54899;SDS011;40801;41.924;25.562;2023-07-20T00:02:15;8.80;;;8.10;;
54899;SDS011;40801;41.924;25.562;2023-07-20T00:04:40;8.82;;;8.13;;
54899;SDS011;40801;41.924;25.562;2023-07-20T00:07:06;8.63;;;7.80;;
54899;SDS011;40801;41.924;25.562;2023-07-20T00:09:31;9.00;;;8.25;;
54899;SDS011;40801;41.924;25.562;2023-07-20T00:11:57;8.57;;;7.95;;
54899;SDS011;40801;41.924;25.562;2023-07-20T00:14:24;8.57;;;7.97;;
54899;SDS011;40801;41.924;25.562;2023-07-20T00:16:50;9.13;;;8.32;;
54899;SDS011;40801;41.924;25.562;2023-07-20T00:19:24;7.88;;;7.28;;
54899;SDS011;40801;41.924;25.562;2023-07-20T00:21:50;9.00;;;8.30;;
54899;SDS011;40801;41.924;25.562;2023-07-20T00:24:15;8.35;;;7.65;;
54899;SDS011;40801;41.924;25.562;2023-07-20T00:26:41;8.77;;;8.07;;
54899;SDS011;40801;41.924;25.562;2023-07-20T00:29:06;8.20;;;7.40;;
54899;SDS011;40801;41.924;25.562;2023-07-20T00:31:31;8.48;;;7.82;;
54899;SDS011;40801;41.924;25.562;2023-07-20T00:33:57;8.30;;;7.60;;
54899;SDS011;40801;41.924;25.562;2023-07-20T00:36:22;8.32;;;7.70;;
54899;SDS011;40801;41.924;25.562;2023-07-20T00:38:48;8.88;;;8.00;;
54899;SDS011;40801;41.924;25.562;2023-07-20T00:41:13;8.85;;;8.05;;
54899;SDS011;40801;41.924;25.562;2023-07-20T00:43:39;8.73;;;8.00;;
54899;SDS011;40801;41.924;25.562;2023-07-20T00:46:05;9.95;;;8.95;;
54899;SDS011;40801;41.924;25.562;2023-07-20T00:48:30;13.05;;;8.65;;
54899;SDS011;40801;41.924;25.562;2023-07-20T00:50:57;8.52;;;7.82;;
54899;SDS011;40801;41.924;25.562;2023-07-20T00:53:24;9.13;;;8.18;;
54899;SDS011;40801;41.924;25.562;2023-07-20T00:55:49;9.20;;;8.43;;
54899;SDS011;40801;41.924;25.562;2023-07-20T00:58:15;8.85;;;8.05;;
54899;SDS011;40801;41.924;25.562;2023-07-20T01:00:40;9.10;;;8.07;;
54899;SDS011;40801;41.924;25.562;2023-07-20T01:03:24;9.60;;;8.45;;
54899;SDS011;40801;41.924;25.562;2023-07-20T01:06:14;9.15;;;8.38;;
54899;SDS011;40801;41.924;25.562;2023-07-20T01:11:32;10.32;;;8.23;;
54899;SDS011;40801;41.924;25.562;2023-07-20T01:14:03;8.15;;;7.45;;
54899;SDS011;40801;41.924;25.562;2023-07-20T01:16:29;8.73;;;7.97;;
54899;SDS011;40801;41.924;25.562;2023-07-20T01:18:55;9.95;;;8.10;;
54899;SDS011;40801;41.924;25.562;2023-07-20T01:21:26;8.93;;;8.23;;
54899;SDS011;40801;41.924;25.562;2023-07-20T01:32:38;8.07;;;7.35;;
54899;SDS011;40801;41.924;25.562;2023-07-20T01:35:07;8.88;;;7.82;;
54899;SDS011;40801;41.924;25.562;2023-07-20T01:37:35;9.45;;;8.65;;
54899;SDS011;40801;41.924;25.562;2023-07-20T01:40:02;9.50;;;8.50;;
54899;SDS011;40801;41.924;25.562;2023-07-20T01:42:28;9.93;;;9.00;;
54899;SDS011;40801;41.924;25.562;2023-07-20T01:44:54;10.20;;;8.38;;
54899;SDS011;40801;41.924;25.562;2023-07-20T01:47:38;8.82;;;7.72;;
54899;SDS011;40801;41.924;25.562;2023-07-20T01:50:04;8.32;;;7.63;;
54899;SDS011;40801;41.924;25.562;2023-07-20T01:52:48;9.02;;;8.10;;
54899;SDS011;40801;41.924;25.562;2023-07-20T01:55:14;8.55;;;7.90;;
54899;SDS011;40801;41.924;25.562;2023-07-20T01:57:39;9.13;;;8.25;;
54899;SDS011;40801;41.924;25.562;2023-07-20T02:00:05;9.15;;;8.35;;
54899;SDS011;40801;41.924;25.562;2023-07-20T02:02:31;9.65;;;8.60;;
54899;SDS011;40801;41.924;25.562;2023-07-20T02:04:57;8.93;;;8.07;;
54899;SDS011;40801;41.924;25.562;2023-07-20T02:07:23;7.95;;;7.35;;
54899;SDS011;40801;41.924;25.562;2023-07-20T02:09:48;9.65;;;7.90;;
54899;SDS011;40801;41.924;25.562;2023-07-20T02:12:13;8.90;;;8.10;;
54899;SDS011;40801;41.924;25.562;2023-07-20T02:14:39;8.00;;;7.35;;
54899;SDS011;40801;41.924;25.562;2023-07-20T02:17:04;9.13;;;8.20;;
54899;SDS011;40801;41.924;25.562;2023-07-20T02:19:30;8.80;;;7.90;;
54899;SDS011;40801;41.924;25.562;2023-07-20T02:21:55;8.38;;;7.78;;
54899;SDS011;40801;41.924;25.562;2023-07-20T02:24:21;8.98;;;8.07;;
54899;SDS011;40801;41.924;25.562;2023-07-20T02:26:46;9.75;;;8.85;;
54899;SDS011;40801;41.924;25.562;2023-07-20T02:29:12;8.98;;;8.25;;
54899;SDS011;40801;41.924;25.562;2023-07-20T02:31:37;9.13;;;8.40;;
54899;SDS011;40801;41.924;25.562;2023-07-20T02:34:04;9.10;;;8.07;;
54899;SDS011;40801;41.924;25.562;2023-07-20T02:36:33;9.18;;;8.40;;
54899;SDS011;40801;41.924;25.562;2023-07-20T02:38:59;7.93;;;7.38;;
54899;SDS011;40801;41.924;25.562;2023-07-20T02:41:25;9.77;;;8.93;;
54899;SDS011;40801;41.924;25.562;2023-07-20T02:43:50;9.88;;;9.13;;
54899;SDS011;40801;41.924;25.562;2023-07-20T02:46:16;9.43;;;8.63;;
54899;SDS011;40801;41.924;25.562;2023-07-20T02:48:41;9.38;;;8.73;;
54899;SDS011;40801;41.924;25.562;2023-07-20T02:51:06;9.60;;;8.90;;
54899;SDS011;40801;41.924;25.562;2023-07-20T02:53:32;9.63;;;8.73;;
54899;SDS011;40801;41.924;25.562;2023-07-20T02:55:58;10.25;;;9.30;;
54899;SDS011;40801;41.924;25.562;2023-07-20T02:58:24;10.55;;;9.57;;
54899;SDS011;40801;41.924;25.562;2023-07-20T03:00:49;9.75;;;9.00;;
54899;SDS011;40801;41.924;25.562;2023-07-20T03:03:15;10.05;;;8.98;;
54899;SDS011;40801;41.924;25.562;2023-07-20T03:05:41;10.30;;;9.43;;
54899;SDS011;40801;41.924;25.562;2023-07-20T03:08:07;10.77;;;9.88;;
54899;SDS011;40801;41.924;25.562;2023-07-20T03:10:32;10.50;;;9.60;;
54899;SDS011;40801;41.924;25.562;2023-07-20T03:12:58;11.07;;;10.00;;
54899;SDS011;40801;41.924;25.562;2023-07-20T03:15:23;10.02;;;9.05;;
54899;SDS011;40801;41.924;25.562;2023-07-20T03:17:49;10.30;;;9.50;;
54899;SDS011;40801;41.924;25.562;2023-07-20T03:20:15;11.10;;;10.18;;
54899;SDS011;40801;41.924;25.562;2023-07-20T03:22:41;9.75;;;9.00;;
54899;SDS011;40801;41.924;25.562;2023-07-20T03:25:06;10.82;;;9.88;;
54899;SDS011;40801;41.924;25.562;2023-07-20T03:27:33;10.52;;;9.50;;
54899;SDS011;40801;41.924;25.562;2023-07-20T03:29:58;10.77;;;9.88;;
54899;SDS011;40801;41.924;25.562;2023-07-20T03:32:23;11.30;;;9.02;;
54899;SDS011;40801;41.924;25.562;2023-07-20T03:34:49;11.27;;;10.38;;
54899;SDS011;40801;41.924;25.562;2023-07-20T03:37:14;13.48;;;10.63;;
54899;SDS011;40801;41.924;25.562;2023-07-20T03:39:39;9.90;;;9.05;;
54899;SDS011;40801;41.924;25.562;2023-07-20T03:42:05;10.93;;;10.02;;
54899;SDS011;40801;41.924;25.562;2023-07-20T03:44:31;10.15;;;9.25;;
54899;SDS011;40801;41.924;25.562;2023-07-20T03:46:56;11.23;;;10.20;;
54899;SDS011;40801;41.924;25.562;2023-07-20T03:49:22;10.90;;;9.82;;
54899;SDS011;40801;41.924;25.562;2023-07-20T03:51:48;9.93;;;9.02;;
54899;SDS011;40801;41.924;25.562;2023-07-20T03:54:13;9.98;;;9.05;;
54899;SDS011;40801;41.924;25.562;2023-07-20T03:56:38;11.13;;;10.07;;
54899;SDS011;40801;41.924;25.562;2023-07-20T03:59:04;10.77;;;9.80;;
54899;SDS011;40801;41.924;25.562;2023-07-20T04:01:30;10.98;;;9.88;;
54899;SDS011;40801;41.924;25.562;2023-07-20T04:03:55;9.95;;;9.00;;
54899;SDS011;40801;41.924;25.562;2023-07-20T04:06:21;9.55;;;8.73;;
54899;SDS011;40801;41.924;25.562;2023-07-20T04:08:47;9.75;;;8.85;;
54899;SDS011;40801;41.924;25.562;2023-07-20T04:11:12;15.57;;;14.23;;
54899;SDS011;40801;41.924;25.562;2023-07-20T04:13:38;11.95;;;10.98;;
54899;SDS011;40801;41.924;25.562;2023-07-20T04:16:04;12.18;;;10.95;;
54899;SDS011;40801;41.924;25.562;2023-07-20T04:18:29;10.70;;;9.75;;
54899;SDS011;40801;41.924;25.562;2023-07-20T04:20:55;12.27;;;11.18;;
54899;SDS011;40801;41.924;25.562;2023-07-20T04:23:20;11.88;;;10.77;;
54899;SDS011;40801;41.924;25.562;2023-07-20T04:25:46;11.50;;;10.48;;
54899;SDS011;40801;41.924;25.562;2023-07-20T04:28:12;12.20;;;11.20;;
54899;SDS011;40801;41.924;25.562;2023-07-20T04:30:37;16.10;;;14.52;;
54899;SDS011;40801;41.924;25.562;2023-07-20T04:33:05;33.10;;;30.00;;
54899;SDS011;40801;41.924;25.562;2023-07-20T04:38:11;15.57;;;14.25;;
54899;SDS011;40801;41.924;25.562;2023-07-20T04:40:37;12.60;;;11.35;;
54899;SDS011;40801;41.924;25.562;2023-07-20T04:43:02;13.93;;;12.00;;
54899;SDS011;40801;41.924;25.562;2023-07-20T04:45:28;12.88;;;11.57;;
54899;SDS011;40801;41.924;25.562;2023-07-20T04:47:53;15.82;;;12.55;;
54899;SDS011;40801;41.924;25.562;2023-07-20T04:50:18;13.60;;;12.30;;
54899;SDS011;40801;41.924;25.562;2023-07-20T04:52:44;12.75;;;11.55;;
54899;SDS011;40801;41.924;25.562;2023-07-20T04:55:11;15.25;;;12.07;;
54899;SDS011;40801;41.924;25.562;2023-07-20T04:57:36;12.30;;;10.50;;
54899;SDS011;40801;41.924;25.562;2023-07-20T05:00:02;10.82;;;9.82;;
54899;SDS011;40801;41.924;25.562;2023-07-20T05:02:28;11.15;;;10.05;;
54899;SDS011;40801;41.924;25.562;2023-07-20T05:04:54;11.35;;;9.77;;
54899;SDS011;40801;41.924;25.562;2023-07-20T05:07:19;11.95;;;10.65;;
54899;SDS011;40801;41.924;25.562;2023-07-20T05:09:45;14.48;;;13.02;;
54899;SDS011;40801;41.924;25.562;2023-07-20T05:12:10;11.68;;;10.48;;
54899;SDS011;40801;41.924;25.562;2023-07-20T05:14:37;10.30;;;9.35;;
54899;SDS011;40801;41.924;25.562;2023-07-20T05:17:03;10.27;;;9.00;;
54899;SDS011;40801;41.924;25.562;2023-07-20T05:19:29;9.45;;;8.55;;
54899;SDS011;40801;41.924;25.562;2023-07-20T05:21:54;10.70;;;9.60;;
54899;SDS011;40801;41.924;25.562;2023-07-20T05:24:19;9.88;;;9.02;;
54899;SDS011;40801;41.924;25.562;2023-07-20T05:26:45;11.05;;;9.75;;
54899;SDS011;40801;41.924;25.562;2023-07-20T05:29:10;10.20;;;9.13;;
54899;SDS011;40801;41.924;25.562;2023-07-20T05:31:36;10.30;;;9.10;;
54899;SDS011;40801;41.924;25.562;2023-07-20T05:34:01;10.27;;;9.05;;
54899;SDS011;40801;41.924;25.562;2023-07-20T05:36:26;12.10;;;10.20;;
54899;SDS011;40801;41.924;25.562;2023-07-20T05:38:52;13.63;;;9.10;;
54899;SDS011;40801;41.924;25.562;2023-07-20T05:41:18;12.00;;;9.20;;
54899;SDS011;40801;41.924;25.562;2023-07-20T05:43:43;10.65;;;9.63;;
54899;SDS011;40801;41.924;25.562;2023-07-20T05:46:08;12.00;;;10.18;;
54899;SDS011;40801;41.924;25.562;2023-07-20T05:48:34;10.23;;;9.05;;
54899;SDS011;40801;41.924;25.562;2023-07-20T05:51:01;10.80;;;9.82;;
54899;SDS011;40801;41.924;25.562;2023-07-20T05:53:26;11.45;;;10.13;;
54899;SDS011;40801;41.924;25.562;2023-07-20T05:55:54;10.45;;;9.65;;
54899;SDS011;40801;41.924;25.562;2023-07-20T05:58:20;11.43;;;10.40;;
54899;SDS011;40801;41.924;25.562;2023-07-20T06:00:49;13.23;;;11.95;;
54899;SDS011;40801;41.924;25.562;2023-07-20T06:03:15;11.68;;;9.60;;
54899;SDS011;40801;41.924;25.562;2023-07-20T06:05:41;11.35;;;10.35;;
54899;SDS011;40801;41.924;25.562;2023-07-20T06:08:07;10.43;;;9.52;;
54899;SDS011;40801;41.924;25.562;2023-07-20T06:10:33;10.80;;;9.52;;
54899;SDS011;40801;41.924;25.562;2023-07-20T06:12:58;10.30;;;9.10;;
54899;SDS011;40801;41.924;25.562;2023-07-20T06:15:27;10.05;;;9.05;;
54899;SDS011;40801;41.924;25.562;2023-07-20T06:17:56;11.07;;;10.13;;
54899;SDS011;40801;41.924;25.562;2023-07-20T06:20:23;9.75;;;8.73;;
54899;SDS011;40801;41.924;25.562;2023-07-20T06:22:49;9.23;;;8.45;;
54899;SDS011;40801;41.924;25.562;2023-07-20T06:25:14;11.50;;;9.77;;
54899;SDS011;40801;41.924;25.562;2023-07-20T06:27:40;9.32;;;8.52;;
54899;SDS011;40801;41.924;25.562;2023-07-20T06:30:05;9.82;;;8.73;;
54899;SDS011;40801;41.924;25.562;2023-07-20T06:32:31;10.00;;;9.20;;
54899;SDS011;40801;41.924;25.562;2023-07-20T06:34:57;10.90;;;9.85;;
54899;SDS011;40801;41.924;25.562;2023-07-20T06:37:23;9.07;;;8.32;;
54899;SDS011;40801;41.924;25.562;2023-07-20T06:39:48;10.55;;;9.30;;
54899;SDS011;40801;41.924;25.562;2023-07-20T06:42:14;9.70;;;8.80;;
54899;SDS011;40801;41.924;25.562;2023-07-20T06:44:39;10.32;;;9.43;;
54899;SDS011;40801;41.924;25.562;2023-07-20T06:47:04;10.45;;;9.52;;
54899;SDS011;40801;41.924;25.562;2023-07-20T06:49:30;10.18;;;9.25;;
54899;SDS011;40801;41.924;25.562;2023-07-20T06:51:56;9.80;;;8.40;;
54899;SDS011;40801;41.924;25.562;2023-07-20T06:54:21;8.68;;;7.97;;
54899;SDS011;40801;41.924;25.562;2023-07-20T06:56:46;10.07;;;9.13;;
54899;SDS011;40801;41.924;25.562;2023-07-20T06:59:12;10.13;;;9.25;;
54899;SDS011;40801;41.924;25.562;2023-07-20T07:01:38;11.88;;;10.10;;
54899;SDS011;40801;41.924;25.562;2023-07-20T07:04:04;10.35;;;9.40;;
54899;SDS011;40801;41.924;25.562;2023-07-20T07:06:30;9.82;;;8.98;;
54899;SDS011;40801;41.924;25.562;2023-07-20T07:08:56;10.52;;;9.63;;
54899;SDS011;40801;41.924;25.562;2023-07-20T07:11:21;12.45;;;11.25;;
54899;SDS011;40801;41.924;25.562;2023-07-20T07:13:47;12.45;;;11.35;;
54899;SDS011;40801;41.924;25.562;2023-07-20T07:16:15;21.08;;;18.98;;
54899;SDS011;40801;41.924;25.562;2023-07-20T07:18:43;10.65;;;9.85;;
54899;SDS011;40801;41.924;25.562;2023-07-20T07:21:09;14.73;;;9.45;;
54899;SDS011;40801;41.924;25.562;2023-07-20T07:23:35;11.82;;;9.55;;
54899;SDS011;40801;41.924;25.562;2023-07-20T07:26:00;9.55;;;8.85;;
54899;SDS011;40801;41.924;25.562;2023-07-20T07:28:25;9.98;;;9.07;;
54899;SDS011;40801;41.924;25.562;2023-07-20T07:30:51;10.40;;;9.32;;
54899;SDS011;40801;41.924;25.562;2023-07-20T07:33:16;9.70;;;8.88;;
54899;SDS011;40801;41.924;25.562;2023-07-20T07:35:42;9.55;;;8.75;;
54899;SDS011;40801;41.924;25.562;2023-07-20T07:38:07;10.45;;;9.45;;
54899;SDS011;40801;41.924;25.562;2023-07-20T07:40:32;10.98;;;10.07;;
54899;SDS011;40801;41.924;25.562;2023-07-20T07:42:58;11.00;;;8.48;;
54899;SDS011;40801;41.924;25.562;2023-07-20T07:45:23;10.43;;;9.52;;
54899;SDS011;40801;41.924;25.562;2023-07-20T07:47:48;9.95;;;8.88;;
54899;SDS011;40801;41.924;25.562;2023-07-20T07:50:14;9.32;;;8.45;;
54899;SDS011;40801;41.924;25.562;2023-07-20T07:52:39;9.38;;;8.57;;
54899;SDS011;40801;41.924;25.562;2023-07-20T07:55:05;8.98;;;8.07;;
54899;SDS011;40801;41.924;25.562;2023-07-20T07:57:31;9.27;;;8.52;;
54899;SDS011;40801;41.924;25.562;2023-07-20T07:59:56;9.43;;;8.50;;
54899;SDS011;40801;41.924;25.562;2023-07-20T08:02:21;10.00;;;9.00;;
54899;SDS011;40801;41.924;25.562;2023-07-20T08:04:47;10.57;;;8.75;;
54899;SDS011;40801;41.924;25.562;2023-07-20T08:07:12;9.95;;;8.45;;
54899;SDS011;40801;41.924;25.562;2023-07-20T08:09:37;9.85;;;7.75;;
54899;SDS011;40801;41.924;25.562;2023-07-20T08:12:03;11.38;;;8.25;;
54899;SDS011;40801;41.924;25.562;2023-07-20T08:14:29;9.18;;;8.30;;
54899;SDS011;40801;41.924;25.562;2023-07-20T08:16:54;9.20;;;8.30;;
54899;SDS011;40801;41.924;25.562;2023-07-20T08:19:20;9.75;;;8.95;;
54899;SDS011;40801;41.924;25.562;2023-07-20T08:21:45;8.75;;;8.05;;
54899;SDS011;40801;41.924;25.562;2023-07-20T08:24:10;9.75;;;8.93;;
54899;SDS011;40801;41.924;25.562;2023-07-20T08:26:36;13.10;;;8.77;;
54899;SDS011;40801;41.924;25.562;2023-07-20T08:29:01;9.43;;;8.52;;
54899;SDS011;40801;41.924;25.562;2023-07-20T08:31:27;12.45;;;11.25;;
54899;SDS011;40801;41.924;25.562;2023-07-20T08:33:53;10.75;;;8.95;;
54899;SDS011;40801;41.924;25.562;2023-07-20T08:36:18;8.82;;;8.10;;
54899;SDS011;40801;41.924;25.562;2023-07-20T08:38:44;8.60;;;7.85;;
54899;SDS011;40801;41.924;25.562;2023-07-20T08:41:09;8.68;;;7.97;;
54899;SDS011;40801;41.924;25.562;2023-07-20T08:43:35;9.55;;;8.80;;
54899;SDS011;40801;41.924;25.562;2023-07-20T08:46:05;10.02;;;8.68;;
54899;SDS011;40801;41.924;25.562;2023-07-20T08:48:30;9.35;;;8.25;;
54899;SDS011;40801;41.924;25.562;2023-07-20T08:50:56;14.05;;;7.85;;
54899;SDS011;40801;41.924;25.562;2023-07-20T08:53:23;14.05;;;12.93;;
54899;SDS011;40801;41.924;25.562;2023-07-20T08:55:49;8.07;;;7.28;;
54899;SDS011;40801;41.924;25.562;2023-07-20T08:58:16;7.55;;;6.88;;
54899;SDS011;40801;41.924;25.562;2023-07-20T09:00:43;10.45;;;7.65;;
54899;SDS011;40801;41.924;25.562;2023-07-20T09:03:08;8.35;;;6.97;;
54899;SDS011;40801;41.924;25.562;2023-07-20T09:05:35;7.30;;;6.53;;
54899;SDS011;40801;41.924;25.562;2023-07-20T09:08:01;7.50;;;6.68;;
54899;SDS011;40801;41.924;25.562;2023-07-20T09:10:28;7.65;;;6.68;;
54899;SDS011;40801;41.924;25.562;2023-07-20T09:12:54;7.72;;;7.13;;
54899;SDS011;40801;41.924;25.562;2023-07-20T09:15:21;9.32;;;7.32;;
54899;SDS011;40801;41.924;25.562;2023-07-20T09:17:48;8.20;;;7.40;;
54899;SDS011;40801;41.924;25.562;2023-07-20T09:20:15;10.40;;;7.38;;
54899;SDS011;40801;41.924;25.562;2023-07-20T09:22:42;7.63;;;6.93;;
54899;SDS011;40801;41.924;25.562;2023-07-20T09:25:11;7.47;;;6.88;;
54899;SDS011;40801;41.924;25.562;2023-07-20T09:27:44;9.05;;;7.03;;
54899;SDS011;40801;41.924;25.562;2023-07-20T09:30:11;7.68;;;6.88;;
54899;SDS011;40801;41.924;25.562;2023-07-20T09:32:48;6.55;;;6.03;;
54899;SDS011;40801;41.924;25.562;2023-07-20T09:35:19;7.55;;;7.03;;
54899;SDS011;40801;41.924;25.562;2023-07-20T09:37:55;8.35;;;7.30;;
54899;SDS011;40801;41.924;25.562;2023-07-20T09:40:24;7.88;;;6.63;;
54899;SDS011;40801;41.924;25.562;2023-07-20T09:42:52;7.85;;;7.32;;
54899;SDS011;40801;41.924;25.562;2023-07-20T09:45:27;6.72;;;6.13;;
54899;SDS011;40801;41.924;25.562;2023-07-20T09:48:13;7.63;;;6.82;;
54899;SDS011;40801;41.924;25.562;2023-07-20T09:50:39;7.53;;;6.82;;
54899;SDS011;40801;41.924;25.562;2023-07-20T09:53:07;8.35;;;7.20;;
54899;SDS011;40801;41.924;25.562;2023-07-20T09:55:34;7.50;;;6.68;;
54899;SDS011;40801;41.924;25.562;2023-07-20T09:58:00;7.43;;;6.68;;
54899;SDS011;40801;41.924;25.562;2023-07-20T10:00:27;7.68;;;6.28;;
54899;SDS011;40801;41.924;25.562;2023-07-20T10:02:53;6.88;;;6.28;;
54899;SDS011;40801;41.924;25.562;2023-07-20T10:07:47;10.43;;;7.18;;
54899;SDS011;40801;41.924;25.562;2023-07-20T10:12:52;7.20;;;6.60;;
54899;SDS011;40801;41.924;25.562;2023-07-20T10:15:19;7.07;;;6.35;;
54899;SDS011;40801;41.924;25.562;2023-07-20T10:18:09;7.40;;;6.80;;
54899;SDS011;40801;41.924;25.562;2023-07-20T10:20:39;10.43;;;7.22;;
54899;SDS011;40801;41.924;25.562;2023-07-20T10:23:08;9.43;;;6.50;;
54899;SDS011;40801;41.924;25.562;2023-07-20T10:25:35;7.95;;;6.28;;
54899;SDS011;40801;41.924;25.562;2023-07-20T10:28:06;8.98;;;6.93;;
54899;SDS011;40801;41.924;25.562;2023-07-20T10:30:35;7.22;;;6.38;;
54899;SDS011;40801;41.924;25.562;2023-07-20T10:33:04;7.38;;;6.72;;
54899;SDS011;40801;41.924;25.562;2023-07-20T10:35:30;6.68;;;6.18;;
54899;SDS011;40801;41.924;25.562;2023-07-20T10:38:02;10.05;;;7.30;;
54899;SDS011;40801;41.924;25.562;2023-07-20T10:40:38;7.88;;;6.75;;
54899;SDS011;40801;41.924;25.562;2023-07-20T10:43:05;6.75;;;6.15;;
54899;SDS011;40801;41.924;25.562;2023-07-20T10:48:08;6.93;;;6.32;;
54899;SDS011;40801;41.924;25.562;2023-07-20T10:50:40;8.70;;;7.07;;
54899;SDS011;40801;41.924;25.562;2023-07-20T10:53:10;8.07;;;7.47;;
54899;SDS011;40801;41.924;25.562;2023-07-20T10:55:40;7.72;;;6.95;;
54899;SDS011;40801;41.924;25.562;2023-07-20T10:58:15;7.97;;;7.25;;
54899;SDS011;40801;41.924;25.562;2023-07-20T11:00:56;6.80;;;6.30;;
54899;SDS011;40801;41.924;25.562;2023-07-20T11:03:27;7.32;;;6.30;;
54899;SDS011;40801;41.924;25.562;2023-07-20T11:05:54;7.38;;;6.70;;
54899;SDS011;40801;41.924;25.562;2023-07-20T11:08:37;7.82;;;7.22;;
54899;SDS011;40801;41.924;25.562;2023-07-20T11:16:31;7.57;;;6.78;;
54899;SDS011;40801;41.924;25.562;2023-07-20T11:19:04;8.35;;;7.65;;
54899;SDS011;40801;41.924;25.562;2023-07-20T11:21:34;11.45;;;10.38;;
54899;SDS011;40801;41.924;25.562;2023-07-20T11:24:02;7.35;;;6.75;;
54899;SDS011;40801;41.924;25.562;2023-07-20T11:28:54;7.53;;;6.93;;
54899;SDS011;40801;41.924;25.562;2023-07-20T11:31:19;7.15;;;6.53;;
54899;SDS011;40801;41.924;25.562;2023-07-20T11:33:45;6.93;;;6.43;;
54899;SDS011;40801;41.924;25.562;2023-07-20T11:36:11;7.07;;;6.60;;
54899;SDS011;40801;41.924;25.562;2023-07-20T11:38:37;7.25;;;6.55;;
54899;SDS011;40801;41.924;25.562;2023-07-20T11:41:05;7.55;;;6.72;;
54899;SDS011;40801;41.924;25.562;2023-07-20T11:43:31;7.55;;;6.28;;
54899;SDS011;40801;41.924;25.562;2023-07-20T11:45:56;7.70;;;7.07;;
54899;SDS011;40801;41.924;25.562;2023-07-20T11:48:22;6.57;;;6.10;;
54899;SDS011;40801;41.924;25.562;2023-07-20T11:50:48;6.90;;;6.35;;
54899;SDS011;40801;41.924;25.562;2023-07-20T11:53:14;7.47;;;6.88;;
54899;SDS011;40801;41.924;25.562;2023-07-20T11:58:07;7.47;;;6.88;;
54899;SDS011;40801;41.924;25.562;2023-07-20T12:02:59;7.65;;;7.07;;
54899;SDS011;40801;41.924;25.562;2023-07-20T12:05:25;7.18;;;6.55;;
54899;SDS011;40801;41.924;25.562;2023-07-20T12:07:54;6.90;;;6.40;;
54899;SDS011;40801;41.924;25.562;2023-07-20T12:10:26;7.00;;;6.30;;
54899;SDS011;40801;41.924;25.562;2023-07-20T12:12:53;6.75;;;6.28;;
54899;SDS011;40801;41.924;25.562;2023-07-20T12:17:44;7.78;;;7.00;;
54899;SDS011;40801;41.924;25.562;2023-07-20T12:20:11;6.82;;;6.32;;
54899;SDS011;40801;41.924;25.562;2023-07-20T12:22:38;7.78;;;7.00;;
54899;SDS011;40801;41.924;25.562;2023-07-20T12:25:05;7.38;;;6.78;;
54899;SDS011;40801;41.924;25.562;2023-07-20T12:27:31;6.97;;;6.28;;
54899;SDS011;40801;41.924;25.562;2023-07-20T12:29:56;6.85;;;6.43;;
54899;SDS011;40801;41.924;25.562;2023-07-20T12:32:22;9.07;;;7.18;;
54899;SDS011;40801;41.924;25.562;2023-07-20T12:34:48;7.43;;;6.75;;
54899;SDS011;40801;41.924;25.562;2023-07-20T12:37:13;8.73;;;7.82;;
54899;SDS011;40801;41.924;25.562;2023-07-20T12:39:38;6.70;;;6.30;;
54899;SDS011;40801;41.924;25.562;2023-07-20T12:42:05;6.70;;;6.15;;
54899;SDS011;40801;41.924;25.562;2023-07-20T12:44:31;7.05;;;6.43;;
54899;SDS011;40801;41.924;25.562;2023-07-20T12:46:56;7.80;;;6.95;;
54899;SDS011;40801;41.924;25.562;2023-07-20T12:49:22;7.47;;;6.88;;
54899;SDS011;40801;41.924;25.562;2023-07-20T12:51:47;7.32;;;6.60;;
54899;SDS011;40801;41.924;25.562;2023-07-20T12:54:12;7.65;;;6.88;;
54899;SDS011;40801;41.924;25.562;2023-07-20T12:56:38;7.07;;;6.47;;
54899;SDS011;40801;41.924;25.562;2023-07-20T12:59:03;7.80;;;6.95;;
54899;SDS011;40801;41.924;25.562;2023-07-20T13:01:30;7.22;;;6.65;;
54899;SDS011;40801;41.924;25.562;2023-07-20T13:03:56;7.70;;;6.88;;
54899;SDS011;40801;41.924;25.562;2023-07-20T13:06:22;8.38;;;7.50;;
54899;SDS011;40801;41.924;25.562;2023-07-20T13:08:48;8.38;;;7.55;;
54899;SDS011;40801;41.924;25.562;2023-07-20T13:11:15;7.95;;;7.25;;
54899;SDS011;40801;41.924;25.562;2023-07-20T13:13:41;8.45;;;7.75;;
54899;SDS011;40801;41.924;25.562;2023-07-20T13:16:06;8.30;;;7.55;;
54899;SDS011;40801;41.924;25.562;2023-07-20T13:18:31;8.10;;;7.40;;
54899;SDS011;40801;41.924;25.562;2023-07-20T13:20:57;7.05;;;6.43;;
54899;SDS011;40801;41.924;25.562;2023-07-20T13:23:22;8.57;;;7.20;;
54899;SDS011;40801;41.924;25.562;2023-07-20T13:25:48;7.90;;;7.20;;
54899;SDS011;40801;41.924;25.562;2023-07-20T13:28:13;8.40;;;7.57;;
54899;SDS011;40801;41.924;25.562;2023-07-20T13:30:39;8.20;;;7.60;;
54899;SDS011;40801;41.924;25.562;2023-07-20T13:33:04;8.50;;;7.68;;
54899;SDS011;40801;41.924;25.562;2023-07-20T13:35:29;7.55;;;6.85;;
54899;SDS011;40801;41.924;25.562;2023-07-20T13:37:55;9.30;;;8.20;;
54899;SDS011;40801;41.924;25.562;2023-07-20T13:40:20;8.43;;;7.72;;
54899;SDS011;40801;41.924;25.562;2023-07-20T13:42:47;8.87;;;8.07;;
54899;SDS011;40801;41.924;25.562;2023-07-20T13:45:13;8.57;;;7.68;;
54899;SDS011;40801;41.924;25.562;2023-07-20T13:47:38;7.63;;;6.88;;
54899;SDS011;40801;41.924;25.562;2023-07-20T13:50:04;10.07;;;7.38;;
54899;SDS011;40801;41.924;25.562;2023-07-20T13:52:30;8.80;;;8.10;;
54899;SDS011;40801;41.924;25.562;2023-07-20T13:54:55;8.68;;;7.88;;
54899;SDS011;40801;41.924;25.562;2023-07-20T13:57:20;7.88;;;7.07;;
54899;SDS011;40801;41.924;25.562;2023-07-20T13:59:46;8.10;;;7.30;;
54899;SDS011;40801;41.924;25.562;2023-07-20T14:02:13;8.25;;;7.43;;
54899;SDS011;40801;41.924;25.562;2023-07-20T14:04:39;8.77;;;7.53;;
54899;SDS011;40801;41.924;25.562;2023-07-20T14:07:04;8.32;;;7.63;;
54899;SDS011;40801;41.924;25.562;2023-07-20T14:09:30;7.93;;;7.15;;
54899;SDS011;40801;41.924;25.562;2023-07-20T14:11:56;9.20;;;7.93;;
54899;SDS011;40801;41.924;25.562;2023-07-20T14:14:21;27.45;;;10.45;;
54899;SDS011;40801;41.924;25.562;2023-07-20T14:16:46;35.35;;;13.55;;
54899;SDS011;40801;41.924;25.562;2023-07-20T14:19:12;17.17;;;12.65;;
54899;SDS011;40801;41.924;25.562;2023-07-20T14:21:37;13.27;;;11.10;;
54899;SDS011;40801;41.924;25.562;2023-07-20T14:24:03;16.67;;;11.38;;
54899;SDS011;40801;41.924;25.562;2023-07-20T14:26:29;13.38;;;10.65;;
54899;SDS011;40801;41.924;25.562;2023-07-20T14:28:54;13.40;;;10.13;;
54899;SDS011;40801;41.924;25.562;2023-07-20T14:31:19;11.57;;;10.52;;
54899;SDS011;40801;41.924;25.562;2023-07-20T14:33:45;11.38;;;10.48;;
54899;SDS011;40801;41.924;25.562;2023-07-20T14:36:11;9.82;;;9.02;;
54899;SDS011;40801;41.924;25.562;2023-07-20T14:38:36;11.18;;;10.38;;
54899;SDS011;40801;41.924;25.562;2023-07-20T14:41:02;13.63;;;11.75;;
54899;SDS011;40801;41.924;25.562;2023-07-20T14:43:27;9.98;;;9.15;;
54899;SDS011;40801;41.924;25.562;2023-07-20T14:45:53;11.90;;;10.32;;
54899;SDS011;40801;41.924;25.562;2023-07-20T14:48:19;11.55;;;10.60;;
54899;SDS011;40801;41.924;25.562;2023-07-20T14:50:45;11.77;;;10.73;;
54899;SDS011;40801;41.924;25.562;2023-07-20T14:53:12;11.00;;;9.80;;
54899;SDS011;40801;41.924;25.562;2023-07-20T14:55:38;10.25;;;9.38;;
54899;SDS011;40801;41.924;25.562;2023-07-20T14:58:04;10.45;;;9.55;;
54899;SDS011;40801;41.924;25.562;2023-07-20T15:00:30;9.07;;;8.20;;
54899;SDS011;40801;41.924;25.562;2023-07-20T15:02:55;9.50;;;8.80;;